This is the latest recevied weather packets stored in our database for station/object WA1DLZ. If no packets are shown the sender has not sent any weather packets the latest 10 day(s).
| Time | Temp. | Humidity | Pressure | Rain* | Wind** | Luminosity | Snow |
|---|---|---|---|---|---|---|---|
| 1777292704 | 8.89° C | 73% | 1024.3 hPa | 0 mm | - | - | - |
| 1777292104 | 7.78° C | 77% | 1024.2 hPa | 0 mm | - | - | - |
| 1777291804 | 7.78° C | 78% | 1024.3 hPa | 0 mm | - | - | - |
| 1777290003 | 5.56° C | 84% | 1024 hPa | 0 mm | - | - | - |
| 1777288804 | 4.44° C | 87% | 1024.1 hPa | 0 mm | - | - | - |
| 1777286703 | 3.33° C | 92% | 1023.8 hPa | 0 mm | - | - | - |
| 1777284604 | 2.22° C | 94% | 1023.6 hPa | 0 mm | - | - | - |
| 1777277404 | 1.67° C | 91% | 1022.5 hPa | 0 mm | - | - | - |
| 1777272904 | 2.22° C | 89% | 1021.7 hPa | 0 mm | - | - | - |
| 1777270204 | 2.78° C | 87% | 1021.6 hPa | 0 mm | - | - | - |
| 1777269304 | 2.78° C | 86% | 1021.7 hPa | 0 mm | - | - | - |
| 1777269004 | 3.33° C | 86% | 1021.7 hPa | 0 mm | - | - | - |
| 1777268405 | 3.33° C | 86% | 1021.7 hPa | 0 mm | - | - | - |
| 1777266904 | 3.89° C | 85% | 1021.8 hPa | 0 mm | - | - | - |
| 1777266604 | 3.89° C | 85% | 1021.7 hPa | 0 mm | - | - | - |
| 1777266004 | 3.89° C | 84% | 1021.8 hPa | 0 mm | - | - | - |
| 1777261804 | 5.56° C | 79% | 1021.4 hPa | 0 mm | - | - | - |
| 1777253403 | 10° C | 62% | 1020.8 hPa | 0 mm | - | - | - |
| 1777247403 | 13.33° C | 57% | 1019.5 hPa | 0 mm | - | - | - |
| 1777246803 | 13.89° C | 54% | 1019.4 hPa | 0 mm | - | - | - |
| 1777243203 | 19.44° C | 42% | 1018.8 hPa | 0 mm | - | - | - |
| 1777242903 | 19.44° C | 40% | 1018.8 hPa | 0 mm | - | - | - |
| 1777241703 | 20° C | 38% | 1018.7 hPa | 0 mm | - | - | - |
| 1777237504 | 21.67° C | 34% | 1018.4 hPa | 0 mm | - | - | - |
| 1777233903 | 22.22° C | 32% | 1018.3 hPa | 0 mm | - | - | - |
* Rain latest hour (hover to see other rain measurements)
** Current wind speed in m/s (hover to see current wind gust speed)